createdAt,value
2018-09-05T00:01:27.362Z,16.43
2018-09-05T00:03:55.535Z,16.93
2018-09-05T00:06:23.721Z,15.37
2018-09-05T00:08:51.868Z,15.80
2018-09-05T00:11:20.448Z,16.33
2018-09-05T00:13:48.640Z,17.30
2018-09-05T00:16:16.796Z,16.37
2018-09-05T00:18:44.967Z,17.27
2018-09-05T00:21:13.124Z,16.70
2018-09-05T00:23:41.295Z,15.83
2018-09-05T00:26:09.482Z,15.23
2018-09-05T00:28:37.638Z,15.57
2018-09-05T00:31:06.095Z,15.40
2018-09-05T00:33:34.263Z,16.17
2018-09-05T00:36:02.449Z,17.17
2018-09-05T00:38:30.615Z,16.80
2018-09-05T00:40:58.826Z,16.33
2018-09-05T00:43:27.014Z,14.77
2018-09-05T00:45:55.187Z,14.83
2018-09-05T00:48:23.366Z,15.93
2018-09-05T00:50:51.615Z,14.63
2018-09-05T00:53:20.438Z,14.13
2018-09-05T00:55:48.659Z,14.47
2018-09-05T00:58:16.840Z,14.40
2018-09-05T01:00:45.013Z,13.63
2018-09-05T01:03:13.552Z,14.33
2018-09-05T01:05:41.727Z,14.37
2018-09-05T01:08:09.896Z,14.23
2018-09-05T01:10:38.090Z,13.83
2018-09-05T01:13:06.267Z,14.93
2018-09-05T01:15:34.464Z,13.27
2018-09-05T01:18:02.648Z,13.73
2018-09-05T01:20:30.918Z,13.07
2018-09-05T01:22:59.119Z,13.37
2018-09-05T01:25:27.295Z,13.50
2018-09-05T01:27:55.504Z,12.73
2018-09-05T01:30:26.394Z,13.13
2018-09-05T01:32:54.988Z,12.87
2018-09-05T01:35:23.169Z,11.97
2018-09-05T01:37:51.356Z,11.50
2018-09-05T01:40:19.542Z,12.67
2018-09-05T01:42:47.711Z,12.10
2018-09-05T01:45:15.899Z,13.23
2018-09-05T01:47:44.067Z,12.73
2018-09-05T01:50:12.321Z,13.17
2018-09-05T01:52:40.496Z,13.27
2018-09-05T01:55:08.678Z,12.97
2018-09-05T01:57:36.863Z,13.47
2018-09-05T02:00:05.043Z,13.10
2018-09-05T02:02:33.237Z,13.37
2018-09-05T02:05:01.427Z,12.90
2018-09-05T02:07:29.609Z,12.80
2018-09-05T02:09:57.778Z,13.07
2018-09-05T02:12:25.943Z,12.77
2018-09-05T02:14:54.107Z,12.47
2018-09-05T02:17:22.289Z,13.43
2018-09-05T02:19:50.452Z,13.57
2018-09-05T02:22:18.610Z,12.97
2018-09-05T02:24:46.788Z,13.47
2018-09-05T02:27:14.976Z,13.03
2018-09-05T02:29:43.141Z,13.97
2018-09-05T02:32:11.375Z,14.57
2018-09-05T02:34:39.555Z,13.00
2018-09-05T02:37:08.276Z,14.10
2018-09-05T02:39:36.453Z,15.80
2018-09-05T02:42:04.640Z,15.97
2018-09-05T02:44:32.815Z,15.47
2018-09-05T02:47:00.963Z,16.70
2018-09-05T02:49:29.122Z,16.43
2018-09-05T02:51:57.300Z,15.23
2018-09-05T02:54:25.490Z,13.87
2018-09-05T02:56:53.648Z,14.50
2018-09-05T02:59:22.123Z,15.03
2018-09-05T03:01:50.287Z,14.73
2018-09-05T03:04:18.451Z,14.27
2018-09-05T03:06:46.946Z,14.90
2018-09-05T03:09:15.137Z,13.87
2018-09-05T03:11:43.778Z,15.37
2018-09-05T03:14:11.959Z,15.80
2018-09-05T03:16:40.124Z,15.43
2018-09-05T03:19:08.282Z,13.10
2018-09-05T03:21:36.869Z,15.23
2018-09-05T03:24:05.032Z,15.07
2018-09-05T03:26:33.246Z,14.63
2018-09-05T03:29:01.387Z,14.60
2018-09-05T03:31:29.568Z,14.80
2018-09-05T03:33:57.744Z,14.47
2018-09-05T03:36:25.909Z,13.87
2018-09-05T03:38:54.078Z,14.33
2018-09-05T03:41:22.273Z,14.17
2018-09-05T03:43:50.436Z,14.50
2018-09-05T03:46:18.684Z,14.57
2018-09-05T03:48:46.851Z,14.30
2018-09-05T03:51:15.013Z,14.47
2018-09-05T03:53:43.203Z,14.30
2018-09-05T03:56:11.397Z,14.37
2018-09-05T03:58:39.548Z,14.47
2018-09-05T04:01:07.713Z,13.80
2018-09-05T04:03:35.879Z,13.97
2018-09-05T04:06:04.260Z,14.47
2018-09-05T04:08:32.419Z,13.60
2018-09-05T04:11:00.659Z,15.07
2018-09-05T04:13:28.817Z,14.70
2018-09-05T04:15:56.991Z,16.10
2018-09-05T04:18:25.181Z,15.53
2018-09-05T04:20:53.347Z,14.57
2018-09-05T04:23:21.510Z,15.37
2018-09-05T04:25:49.664Z,15.47
2018-09-05T04:28:17.834Z,15.50
2018-09-05T04:30:46.031Z,15.03
2018-09-05T04:33:14.289Z,13.93
2018-09-05T04:35:42.464Z,14.90
2018-09-05T04:38:10.663Z,15.03
2018-09-05T04:40:38.856Z,15.80
2018-09-05T04:43:07.184Z,16.20
2018-09-05T04:45:35.376Z,15.33
2018-09-05T04:48:03.564Z,13.67
2018-09-05T04:50:32.119Z,14.73
2018-09-05T04:53:00.296Z,14.90
2018-09-05T04:55:28.467Z,14.13
2018-09-05T04:57:56.669Z,14.17
2018-09-05T05:00:24.854Z,15.40
2018-09-05T05:02:53.134Z,14.10
2018-09-05T05:05:21.354Z,14.87
2018-09-05T05:07:49.484Z,17.03
2018-09-05T05:10:17.669Z,18.03
2018-09-05T05:12:46.041Z,18.70
2018-09-05T05:15:14.224Z,21.90
2018-09-05T05:17:42.383Z,20.10
2018-09-05T05:20:10.561Z,19.57
2018-09-05T05:22:38.771Z,20.80
2018-09-05T05:25:06.934Z,22.13
2018-09-05T05:27:35.141Z,24.47
2018-09-05T05:30:03.486Z,23.17
2018-09-05T05:32:31.708Z,23.20
2018-09-05T05:34:59.863Z,22.50
2018-09-05T05:37:28.047Z,22.37
2018-09-05T05:39:56.219Z,20.40
2018-09-05T05:42:24.765Z,20.80
2018-09-05T05:44:52.943Z,19.93
2018-09-05T05:47:21.142Z,20.47
2018-09-05T05:49:49.331Z,21.77
2018-09-05T05:52:17.524Z,20.63
2018-09-05T05:54:45.749Z,19.80
2018-09-05T05:57:13.948Z,19.67
2018-09-05T05:59:42.123Z,21.10
2018-09-05T06:02:10.294Z,19.83
2018-09-05T06:04:38.454Z,17.73
2018-09-05T06:07:06.650Z,19.27
2018-09-05T06:09:34.884Z,17.80
2018-09-05T06:12:03.198Z,18.87
2018-09-05T06:14:31.376Z,18.00
2018-09-05T06:16:59.561Z,17.60
2018-09-05T06:19:27.755Z,17.33
2018-09-05T06:21:55.993Z,17.13
2018-09-05T06:24:24.303Z,16.63
2018-09-05T06:26:52.531Z,15.80
2018-09-05T06:29:21.070Z,14.97
2018-09-05T06:31:49.456Z,14.77
2018-09-05T06:34:17.707Z,13.90
2018-09-05T06:36:45.970Z,14.20
2018-09-05T06:39:14.205Z,13.20
2018-09-05T06:41:42.415Z,14.17
2018-09-05T06:44:10.621Z,14.83
2018-09-05T06:46:38.779Z,13.40
2018-09-05T06:49:06.949Z,13.47
2018-09-05T06:51:35.127Z,13.63
2018-09-05T06:54:03.299Z,13.63
2018-09-05T06:56:31.478Z,14.00
2018-09-05T06:58:59.683Z,14.00
2018-09-05T07:01:27.875Z,13.47
2018-09-05T07:03:56.044Z,14.00
2018-09-05T07:06:24.245Z,14.20
2018-09-05T07:08:52.435Z,13.60
2018-09-05T07:11:20.658Z,12.40
2018-09-05T07:13:48.890Z,13.33
2018-09-05T07:16:17.144Z,12.97
2018-09-05T07:18:45.331Z,13.50
2018-09-05T07:21:13.564Z,12.63
2018-09-05T07:23:41.723Z,12.60
2018-09-05T07:26:10.119Z,12.10
2018-09-05T07:28:38.295Z,12.00
2018-09-05T07:31:06.865Z,12.60
2018-09-05T07:33:35.115Z,13.03
2018-09-05T07:36:03.699Z,12.40
2018-09-05T07:38:32.300Z,10.97
2018-09-05T07:41:00.530Z,13.00
2018-09-05T07:43:28.839Z,12.17
2018-09-05T07:45:57.036Z,12.93
2018-09-05T07:48:25.254Z,12.13
2018-09-05T07:50:53.490Z,13.00
2018-09-05T07:53:21.691Z,12.63
2018-09-05T07:55:50.349Z,12.20
2018-09-05T07:58:18.609Z,11.33
2018-09-05T08:00:47.221Z,12.07
2018-09-05T08:03:15.434Z,13.53
2018-09-05T08:05:43.848Z,11.87
2018-09-05T08:08:12.045Z,12.47
2018-09-05T08:10:40.314Z,12.13
2018-09-05T08:13:08.516Z,12.90
2018-09-05T08:15:36.842Z,12.83
2018-09-05T08:18:05.207Z,11.87
2018-09-05T08:20:33.346Z,13.20
2018-09-05T08:23:01.566Z,12.67
2018-09-05T08:25:29.781Z,13.30
2018-09-05T08:27:58.011Z,13.30
2018-09-05T08:30:26.207Z,11.97
2018-09-05T08:32:54.466Z,12.23
2018-09-05T08:35:22.953Z,14.27
2018-09-05T08:37:51.044Z,14.90
2018-09-05T08:40:19.117Z,13.27
2018-09-05T08:42:47.395Z,13.57
2018-09-05T08:45:15.703Z,14.03
2018-09-05T08:47:43.755Z,14.68
2018-09-05T08:50:11.948Z,13.75
2018-09-05T08:52:40.169Z,14.58
2018-09-05T08:55:08.422Z,12.33
2018-09-05T08:57:36.542Z,15.25
2018-09-05T09:00:05.327Z,15.18
2018-09-05T09:02:33.523Z,15.95
2018-09-05T09:05:02.318Z,15.00
2018-09-05T09:07:30.491Z,14.38
2018-09-05T09:09:58.739Z,13.28
2018-09-05T09:12:26.962Z,14.78
2018-09-05T09:14:55.148Z,16.02
2018-09-05T09:17:23.331Z,14.40
2018-09-05T09:19:51.633Z,12.23
2018-09-05T09:22:19.823Z,13.80
2018-09-05T09:24:48.055Z,12.10
2018-09-05T09:27:16.244Z,13.00
2018-09-05T09:29:44.413Z,13.22
2018-09-05T09:32:12.625Z,12.93
2018-09-05T09:34:40.958Z,12.05
2018-09-05T09:37:09.284Z,13.00
2018-09-05T09:39:37.500Z,11.35
2018-09-05T09:42:06.336Z,9.95
2018-09-05T09:44:34.569Z,10.05
2018-09-05T09:47:02.776Z,10.82
2018-09-05T09:49:31.012Z,9.90
2018-09-05T09:52:04.591Z,10.28
2018-09-05T09:54:32.869Z,9.53
2018-09-05T09:57:01.088Z,9.08
2018-09-05T09:59:29.288Z,8.58
2018-09-05T10:02:02.928Z,9.58
2018-09-05T10:04:36.591Z,9.23
2018-09-05T10:07:10.310Z,9.40
2018-09-05T10:09:44.016Z,9.05
2018-09-05T10:12:17.400Z,10.70
2018-09-05T10:14:45.629Z,9.55
2018-09-05T10:17:19.926Z,9.45
2018-09-05T10:19:53.441Z,10.43
2018-09-05T10:22:21.687Z,9.53
2018-09-05T10:24:49.925Z,9.50
2018-09-05T10:27:18.129Z,9.75
2018-09-05T10:29:46.329Z,9.13
2018-09-05T10:32:14.538Z,8.95
2018-09-05T10:34:42.825Z,9.15
2018-09-05T10:37:11.008Z,9.20
2018-09-05T10:39:39.188Z,9.63
2018-09-05T10:42:07.476Z,9.28
2018-09-05T10:44:35.670Z,10.38
2018-09-05T10:47:03.893Z,8.88
2018-09-05T10:49:32.147Z,8.95
2018-09-05T10:52:03.314Z,9.55
2018-09-05T10:54:31.528Z,8.18
2018-09-05T10:57:00.432Z,9.00
2018-09-05T10:59:28.711Z,9.00
2018-09-05T11:01:57.076Z,9.73
2018-09-05T11:04:25.459Z,9.30
2018-09-05T11:06:53.715Z,8.53
2018-09-05T11:09:21.892Z,8.78
2018-09-05T11:11:50.129Z,9.20
2018-09-05T11:14:18.351Z,9.55
2018-09-05T11:16:46.531Z,9.28
2018-09-05T11:19:15.166Z,9.70
2018-09-05T11:21:43.338Z,9.15
2018-09-05T11:24:11.545Z,9.28
2018-09-05T11:26:39.789Z,9.88
2018-09-05T11:29:08.437Z,9.13
2018-09-05T11:31:49.136Z,9.53
2018-09-05T11:34:17.370Z,9.35
2018-09-05T11:36:45.609Z,10.43
2018-09-05T11:39:14.524Z,9.45
2018-09-05T11:42:15.318Z,10.25
2018-09-05T11:44:43.538Z,9.65
2018-09-05T11:47:11.706Z,10.03
2018-09-05T11:49:39.902Z,10.00
2018-09-05T11:52:08.340Z,10.08
2018-09-05T11:54:36.526Z,9.85
2018-09-05T11:57:04.799Z,10.48
2018-09-05T11:59:32.999Z,10.05
2018-09-05T12:02:01.184Z,9.78
2018-09-05T12:04:29.392Z,9.68
2018-09-05T12:06:57.571Z,10.63
2018-09-05T12:09:25.729Z,9.70
2018-09-05T12:11:53.888Z,10.75
2018-09-05T12:14:22.067Z,9.65
2018-09-05T12:16:50.245Z,10.78
2018-09-05T12:19:18.432Z,9.30
2018-09-05T12:21:46.618Z,10.35
2018-09-05T12:24:15.083Z,10.28
2018-09-05T12:26:43.256Z,10.72
2018-09-05T12:29:12.453Z,9.78
2018-09-05T12:31:42.495Z,9.60
2018-09-05T12:34:11.259Z,10.38
2018-09-05T12:36:39.472Z,9.68
2018-09-05T12:39:09.848Z,10.05
2018-09-05T12:41:38.747Z,9.90
2018-09-05T12:44:06.947Z,9.78
2018-09-05T12:46:35.122Z,10.43
2018-09-05T12:49:03.748Z,10.25
2018-09-05T12:51:31.999Z,10.65
2018-09-05T12:54:00.170Z,10.13
2018-09-05T12:56:28.803Z,10.48
2018-09-05T12:58:56.984Z,10.30
2018-09-05T13:01:25.185Z,10.60
2018-09-05T13:03:53.363Z,10.60
2018-09-05T13:06:21.599Z,11.78
2018-09-05T13:08:49.779Z,10.85
2018-09-05T13:11:17.972Z,10.93
2018-09-05T13:13:46.508Z,11.25
2018-09-05T13:16:14.683Z,11.85
2018-09-05T13:18:42.871Z,11.15
2018-09-05T13:21:11.059Z,11.03
2018-09-05T13:23:39.223Z,11.20
2018-09-05T13:26:07.452Z,11.00
2018-09-05T13:28:35.679Z,10.75
2018-09-05T13:31:03.923Z,11.12
2018-09-05T13:33:32.089Z,11.97
2018-09-05T13:36:00.268Z,11.53
2018-09-05T13:38:28.947Z,10.88
2018-09-05T13:40:57.150Z,11.73
2018-09-05T13:43:25.317Z,12.20
2018-09-05T13:45:53.837Z,11.70
2018-09-05T13:48:22.013Z,11.65
2018-09-05T13:50:50.208Z,21.30
2018-09-05T13:53:18.390Z,10.58
2018-09-05T13:55:46.597Z,11.73
2018-09-05T13:58:14.783Z,11.53
2018-09-05T14:00:43.005Z,10.13
2018-09-05T14:03:11.179Z,11.25
2018-09-05T14:05:39.497Z,11.38
2018-09-05T14:08:08.307Z,10.65
2018-09-05T14:10:36.494Z,11.50
2018-09-05T14:13:04.670Z,11.20
2018-09-05T14:15:32.867Z,10.30
2018-09-05T14:18:01.054Z,10.18
2018-09-05T14:20:29.400Z,9.90
2018-09-05T14:22:57.676Z,10.78
2018-09-05T14:25:26.222Z,10.40
2018-09-05T14:27:54.442Z,10.45
2018-09-05T14:30:22.628Z,10.35
2018-09-05T14:32:51.361Z,10.35
2018-09-05T14:35:19.519Z,9.93
2018-09-05T14:37:47.698Z,11.05
2018-09-05T14:40:15.918Z,11.25
2018-09-05T14:42:44.129Z,11.20
2018-09-05T14:45:12.303Z,11.55
2018-09-05T14:47:40.477Z,11.05
2018-09-05T14:50:08.655Z,10.98
2018-09-05T14:52:36.824Z,11.80
2018-09-05T14:55:05.000Z,11.25
2018-09-05T14:57:33.183Z,11.08
2018-09-05T15:00:01.346Z,11.33
2018-09-05T15:02:29.521Z,10.82
2018-09-05T15:04:57.712Z,10.55
2018-09-05T15:07:25.893Z,9.90
2018-09-05T15:09:54.079Z,10.03
2018-09-05T15:12:22.272Z,9.75
2018-09-05T15:14:50.452Z,9.85
2018-09-05T15:17:18.616Z,9.75
2018-09-05T15:19:46.782Z,9.95
2018-09-05T15:22:14.982Z,10.38
2018-09-05T15:24:43.130Z,10.20
2018-09-05T15:27:11.551Z,9.90
2018-09-05T15:29:39.708Z,10.68
2018-09-05T15:32:08.120Z,10.10
2018-09-05T15:34:36.305Z,11.15
2018-09-05T15:37:04.478Z,9.80
2018-09-05T15:39:32.887Z,9.90
2018-09-05T15:42:00.992Z,9.80
2018-09-05T15:44:29.145Z,10.48
2018-09-05T15:46:57.460Z,9.93
2018-09-05T15:49:25.495Z,10.32
2018-09-05T15:51:55.505Z,10.63
2018-09-05T15:54:24.832Z,10.28
2018-09-05T15:56:53.522Z,10.95
2018-09-05T15:59:22.426Z,11.30
2018-09-05T16:01:50.636Z,11.60
2018-09-05T16:04:18.809Z,10.63
2018-09-05T16:06:47.041Z,10.63
2018-09-05T16:09:15.217Z,11.57
2018-09-05T16:11:43.584Z,10.80
2018-09-05T16:14:11.755Z,10.70
2018-09-05T16:16:39.922Z,11.30
2018-09-05T16:19:08.364Z,10.85
2018-09-05T16:21:36.556Z,10.00
2018-09-05T16:24:04.726Z,11.12
2018-09-05T16:26:32.968Z,10.78
2018-09-05T16:29:01.336Z,9.88
2018-09-05T16:31:29.509Z,11.75
2018-09-05T16:33:57.681Z,11.18
2018-09-05T16:36:25.863Z,11.10
2018-09-05T16:38:54.036Z,12.28
2018-09-05T16:41:22.224Z,11.60
2018-09-05T16:43:50.384Z,11.10
2018-09-05T16:46:18.595Z,11.63
2018-09-05T16:48:46.830Z,10.50
2018-09-05T16:51:14.955Z,11.35
2018-09-05T16:53:43.171Z,10.53
2018-09-05T16:56:11.386Z,11.15
2018-09-05T16:58:39.536Z,10.55
2018-09-05T17:01:07.892Z,10.40
2018-09-05T17:03:35.926Z,11.10
2018-09-05T17:06:04.084Z,10.95
2018-09-05T17:08:32.256Z,10.73
2018-09-05T17:11:00.536Z,10.50
2018-09-05T17:13:28.700Z,10.83
2018-09-05T17:15:56.875Z,9.80
2018-09-05T17:18:25.041Z,10.77
2018-09-05T17:20:53.220Z,10.43
2018-09-05T17:23:21.421Z,10.67
2018-09-05T17:25:49.583Z,10.23
2018-09-05T17:28:18.173Z,10.50
2018-09-05T17:30:46.372Z,15.47
2018-09-05T17:33:14.946Z,12.27
2018-09-05T17:35:43.173Z,10.50
2018-09-05T17:38:11.349Z,10.00
2018-09-05T17:40:39.654Z,10.33
2018-09-05T17:43:07.846Z,9.73
2018-09-05T17:45:36.196Z,9.73
2018-09-05T17:48:04.405Z,10.23
2018-09-05T17:50:32.620Z,10.07
2018-09-05T17:53:00.837Z,10.50
2018-09-05T17:55:29.033Z,9.63
2018-09-05T17:57:57.542Z,10.83
2018-09-05T18:00:25.741Z,10.77
2018-09-05T18:02:53.912Z,10.43
2018-09-05T18:05:22.211Z,11.73
2018-09-05T18:07:50.371Z,11.00
2018-09-05T18:10:18.564Z,11.93
2018-09-05T18:12:46.708Z,10.93
2018-09-05T18:15:14.891Z,12.10
2018-09-05T18:17:43.047Z,12.27
2018-09-05T18:20:11.283Z,12.00
2018-09-05T18:22:39.469Z,12.13
2018-09-05T18:25:07.645Z,11.90
2018-09-05T18:27:35.803Z,13.30
2018-09-05T18:30:04.339Z,12.43
2018-09-05T18:32:32.510Z,12.90
2018-09-05T18:35:00.687Z,12.57
2018-09-05T18:37:28.846Z,12.70
2018-09-05T18:39:57.029Z,12.70
2018-09-05T18:42:25.197Z,13.90
2018-09-05T18:44:53.378Z,13.90
2018-09-05T18:47:21.895Z,13.33
2018-09-05T18:49:50.087Z,14.10
2018-09-05T18:52:18.317Z,13.53
2018-09-05T18:54:46.542Z,14.70
2018-09-05T18:57:14.721Z,15.40
2018-09-05T18:59:42.870Z,14.47
2018-09-05T19:02:11.061Z,13.50
2018-09-05T19:04:39.231Z,14.47
2018-09-05T19:07:07.622Z,14.70
2018-09-05T19:09:35.806Z,14.57
2018-09-05T19:12:03.967Z,15.10
2018-09-05T19:14:32.349Z,14.87
2018-09-05T19:17:00.501Z,14.60
2018-09-05T19:19:28.650Z,14.93
2018-09-05T19:21:56.826Z,15.47
2018-09-05T19:24:24.966Z,15.07
2018-09-05T19:26:53.144Z,15.13
2018-09-05T19:29:21.283Z,15.03
2018-09-05T19:31:49.422Z,14.77
2018-09-05T19:34:17.754Z,15.33
2018-09-05T19:36:45.922Z,15.10
2018-09-05T19:39:14.119Z,16.20
2018-09-05T19:41:42.294Z,16.20
2018-09-05T19:44:10.525Z,15.57
2018-09-05T19:46:38.716Z,16.00
2018-09-05T19:49:06.872Z,16.17
2018-09-05T19:51:35.434Z,15.83
2018-09-05T19:54:03.624Z,16.00
2018-09-05T19:56:31.772Z,15.77
2018-09-05T19:58:59.919Z,15.53
2018-09-05T20:01:28.077Z,15.77
2018-09-05T20:03:56.275Z,16.53
2018-09-05T20:06:24.455Z,16.70
2018-09-05T20:08:52.702Z,17.23
2018-09-05T20:11:20.857Z,16.80
2018-09-05T20:13:49.035Z,16.37
2018-09-05T20:16:17.314Z,15.93
2018-09-05T20:18:45.517Z,16.03
2018-09-05T20:21:13.882Z,17.03
2018-09-05T20:23:42.133Z,15.43
2018-09-05T20:26:10.350Z,15.30
2018-09-05T20:28:38.514Z,15.50
2018-09-05T20:31:06.717Z,14.57
2018-09-05T20:33:34.930Z,15.50
2018-09-05T20:36:03.065Z,16.17
2018-09-05T20:38:31.278Z,16.47
2018-09-05T20:40:59.443Z,17.27
2018-09-05T20:43:27.666Z,17.47
2018-09-05T20:45:55.853Z,17.13
2018-09-05T20:48:24.099Z,16.23
2018-09-05T20:50:52.315Z,17.20
2018-09-05T20:53:20.518Z,17.90
2018-09-05T20:55:48.774Z,17.97
2018-09-05T20:58:16.946Z,17.33
2018-09-05T21:00:45.150Z,17.20
2018-09-05T21:03:13.326Z,18.90
2018-09-05T21:05:41.497Z,18.50
2018-09-05T21:08:09.674Z,18.70
2018-09-05T21:10:37.846Z,18.10
2018-09-05T21:13:06.101Z,18.73
2018-09-05T21:15:34.249Z,18.70
2018-09-05T21:18:02.513Z,18.03
2018-09-05T21:20:30.613Z,18.47
2018-09-05T21:22:58.776Z,18.77
2018-09-05T21:25:26.972Z,18.27
2018-09-05T21:27:55.101Z,18.90
2018-09-05T21:30:29.950Z,18.70
2018-09-05T21:32:58.125Z,19.67
2018-09-05T21:35:26.690Z,18.43
2018-09-05T21:37:54.869Z,17.43
2018-09-05T21:40:22.999Z,18.50
2018-09-05T21:42:51.177Z,16.47
2018-09-05T21:45:19.310Z,16.90
2018-09-05T21:47:47.510Z,17.27
2018-09-05T21:50:15.645Z,17.20
2018-09-05T21:52:43.898Z,17.00
2018-09-05T21:55:12.012Z,17.77
2018-09-05T21:57:40.202Z,18.53
2018-09-05T22:00:09.662Z,17.00
2018-09-05T22:02:37.859Z,17.47
2018-09-05T22:05:06.006Z,16.93
2018-09-05T22:07:34.321Z,17.13
2018-09-05T22:10:02.457Z,17.43
2018-09-05T22:12:30.646Z,18.13
2018-09-05T22:14:58.781Z,17.17
2018-09-05T22:17:26.921Z,17.63
2018-09-05T22:19:55.033Z,18.57
2018-09-05T22:22:23.180Z,18.23
2018-09-05T22:24:51.315Z,16.93
2018-09-05T22:27:19.450Z,17.77
2018-09-05T22:29:47.924Z,19.87
2018-09-05T22:32:16.145Z,19.00
2018-09-05T22:34:44.193Z,18.93
2018-09-05T22:37:12.334Z,18.83
2018-09-05T22:39:40.485Z,17.50
2018-09-05T22:42:08.840Z,17.03
2018-09-05T22:44:48.249Z,17.07
2018-09-05T22:47:27.877Z,17.00
2018-09-05T22:50:12.686Z,17.83
2018-09-05T22:55:08.687Z,17.27
2018-09-05T22:59:52.682Z,17.40
2018-09-05T23:02:43.143Z,17.40
2018-09-05T23:05:24.147Z,18.50
2018-09-05T23:08:42.823Z,16.73
2018-09-05T23:11:23.744Z,18.93
2018-09-05T23:14:03.602Z,18.10
2018-09-05T23:18:50.774Z,19.27
2018-09-05T23:21:27.451Z,19.63
2018-09-05T23:24:01.415Z,18.93
2018-09-05T23:26:30.006Z,19.57
2018-09-05T23:28:58.170Z,19.07
2018-09-05T23:31:26.391Z,18.43
2018-09-05T23:33:54.819Z,18.27
2018-09-05T23:36:23.918Z,18.60
2018-09-05T23:38:52.078Z,19.47
2018-09-05T23:41:20.270Z,19.37
2018-09-05T23:43:48.398Z,19.20
2018-09-05T23:46:16.538Z,18.60
2018-09-05T23:48:44.666Z,19.00
2018-09-05T23:51:12.803Z,18.50
2018-09-05T23:53:40.926Z,19.07
2018-09-05T23:56:09.431Z,20.03
2018-09-05T23:58:37.563Z,20.00
